Startpagina
METAR-TAF:

METAR-TAF

Vliegvelden :

Teheran Mehrabad International Airport

Teheran, Iran

breedte: 35-41N, lengte: 051-21E, hoogte: 1204 m

Actueel weer

Dit bericht is 23 minuten geleden gemaakt, om 15:30 UTC
Wind 4 kt uit het zuiden
Temperatuur 18°C
Vochtigheid 39%
Druk 1023 hPa
Zicht 10 km of meer
Weinig wolken op 3500 ft

METAR: OIII 171530Z 17004KT 9999 FEW035 18/04 Q1023 A3022

Tijdstip: 19:23 (15:53 UTC)

Verwachting

Dit bericht is 4 uur en het 23 minuten geleden gemaakt, om 11:30 UTC
Verwachting geldig van 17 om 12 UTC tot 18 om 18 UTC
Wind 10 kt uit het westnoordwesten
Zicht: 7000 m
Weinig wolken op 3000 ft
Verspreide wolken op 10000 ft
Tijdelijke
van 17 om 12 UTC tot 17 om 18 UTC
Wind 17 kt uit het westen
Weinig wolken op 3500 ft, Cumulonimbus.
Verspreide wolken op 4000 ft
Gebroken wolken op 9000 ft

TAF: OIII 171130Z 1712/1818 30005MPS 7000 FEW030 SCT100 TEMPO 1712/1718 26009MPS FEW035CB SCT040 BKN090

Waarnemingen en weersverwachtingen van meer dan 4000 vliegvelden (METAR en TAF).

De beschikbare stations zijn de gele en rode punten op de kaart.

Ga met uw muis naar het station om de naam te zien.

Klik dan om waarnemingen en weersverwachtingen te zien.

kaart wijzigen: klik op de groene knoppen met een zwart kruis om in te zoomen, op de groene knop met een streepje om uit te zoomen of op de groene pijlen voor aangrenzende kaarten.


METAR-TAF: